Time;durP1;ratioP1;P1;durP2;ratioP2;P2;SDS_P1;SDS_P2;PMS_P1;PMS_P2;Temp;Humidity;BMP_temperature;BMP_pressure;BME280_temperature;BME280_humidity;BME280_pressure;Samples;Min_cycle;Max_cycle;Signal;HPM_P1;HPM_P2
2022/02/24 00:01:53;0.00;0.00;0.62;0.00;0.00;0.62;3.10;1.37;;;23.60;25.60;;;;;;2265414;61;20373;-68
2022/02/24 00:04:19;0.00;0.00;0.62;0.00;0.00;0.62;5.40;1.10;;;23.50;25.50;;;;;;2265177;61;20378;-69
2022/02/24 00:06:45;0.00;0.00;0.62;0.00;0.00;0.62;2.03;1.20;;;23.50;25.60;;;;;;2265040;61;20461;-70
2022/02/24 00:09:11;0.00;0.00;0.62;0.00;0.00;0.62;1.70;0.93;;;23.50;25.50;;;;;;2265726;61;20431;-67
2022/02/24 00:11:37;0.00;0.00;0.62;0.00;0.00;0.62;2.67;1.27;;;23.50;25.50;;;;;;2265015;61;20381;-69
2022/02/24 00:14:03;0.00;0.00;0.62;0.00;0.00;0.62;2.60;1.40;;;23.50;25.50;;;;;;2264579;61;20552;-69
2022/02/24 00:16:31;0.00;0.00;0.62;0.00;0.00;0.62;3.13;1.17;;;23.50;25.50;;;;;;2265692;61;20350;-69
2022/02/24 00:18:57;0.00;0.00;0.62;0.00;0.00;0.62;3.10;1.20;;;23.50;25.40;;;;;;2265100;61;20396;-69
2022/02/24 00:21:24;0.00;0.00;0.62;0.00;0.00;0.62;3.30;1.20;;;23.50;25.30;;;;;;2264925;61;20648;-69
2022/02/24 00:23:50;0.00;0.00;0.62;0.00;0.00;0.62;2.67;1.30;;;23.50;25.20;;;;;;2265624;61;20393;-70
2022/02/24 00:26:16;0.00;0.00;0.62;0.00;0.00;0.62;3.97;1.43;;;23.50;25.60;;;;;;2265963;61;20356;-69
2022/02/24 00:28:42;0.00;0.00;0.62;0.00;0.00;0.62;2.23;1.30;;;23.40;24.90;;;;;;2265759;61;20357;-67
2022/02/24 00:31:09;0.00;0.00;0.62;0.00;0.00;0.62;3.53;1.37;;;23.40;24.80;;;;;;2266271;61;20464;-69
2022/02/24 00:33:38;0.00;0.00;0.62;0.00;0.00;0.62;3.83;1.73;;;23.40;24.70;;;;;;2265866;61;20488;-68
2022/02/24 00:36:05;0.00;0.00;0.62;0.00;0.00;0.62;2.27;1.43;;;23.30;24.60;;;;;;2265509;61;20633;-67
2022/02/24 00:38:31;0.00;0.00;0.62;0.00;0.00;0.62;2.53;1.20;;;23.30;24.40;;;;;;2266470;61;20429;-69
2022/02/24 00:40:57;0.00;0.00;0.62;0.00;0.00;0.62;3.83;1.57;;;23.20;24.20;;;;;;2266138;61;20353;-69
2022/02/24 00:43:24;0.00;0.00;0.62;0.00;0.00;0.62;2.00;1.60;;;23.20;24.00;;;;;;2265399;61;20480;-69
2022/02/24 00:45:50;0.00;0.00;0.62;0.00;0.00;0.62;3.07;1.20;;;23.10;23.80;;;;;;2265678;61;20576;-69
2022/02/24 00:48:16;0.00;0.00;0.62;0.00;0.00;0.62;2.90;1.40;;;23.10;23.80;;;;;;2265934;61;20385;-69
2022/02/24 00:50:44;0.00;0.00;0.62;0.00;0.00;0.62;2.27;1.47;;;23.00;23.80;;;;;;2265571;61;20446;-68
2022/02/24 00:53:10;0.00;0.00;0.62;0.00;0.00;0.62;3.77;1.67;;;23.00;23.80;;;;;;2265993;61;20412;-69
2022/02/24 00:55:37;0.00;0.00;0.62;0.00;0.00;0.62;3.90;1.47;;;22.90;23.80;;;;;;2266033;61;20416;-69
2022/02/24 00:58:03;0.00;0.00;0.62;0.00;0.00;0.62;3.27;1.57;;;22.90;24.40;;;;;;2265565;61;20349;-69
2022/02/24 01:00:30;0.00;0.00;0.62;0.00;0.00;0.62;3.10;1.70;;;22.90;23.90;;;;;;2266069;61;20385;-69
2022/02/24 01:02:56;0.00;0.00;0.62;0.00;0.00;0.62;4.20;1.80;;;22.80;23.90;;;;;;2265797;61;20374;-69
2022/02/24 01:05:23;0.00;0.00;0.62;0.00;0.00;0.62;4.87;2.13;;;22.80;24.00;;;;;;2265070;61;20353;-68
2022/02/24 01:07:50;0.00;0.00;0.62;0.00;0.00;0.62;2.90;1.60;;;22.80;24.00;;;;;;2265811;61;20416;-69
2022/02/24 01:10:16;0.00;0.00;0.62;0.00;0.00;0.62;3.23;1.30;;;22.80;23.90;;;;;;2265857;61;20354;-69
2022/02/24 01:12:42;0.00;0.00;0.62;0.00;0.00;0.62;4.20;1.87;;;22.70;23.80;;;;;;2265379;61;20358;-69
2022/02/24 01:15:11;0.00;0.00;0.62;0.00;0.00;0.62;4.90;1.90;;;22.70;23.70;;;;;;2265530;61;20350;-68
2022/02/24 01:17:39;0.00;0.00;0.62;0.00;0.00;0.62;3.13;1.73;;;22.60;23.50;;;;;;2265989;61;20346;-68
2022/02/24 01:20:08;0.00;0.00;0.62;0.00;0.00;0.62;2.70;1.30;;;22.60;23.50;;;;;;2265015;61;20488;-68
2022/02/24 01:22:34;0.00;0.00;0.62;0.00;0.00;0.62;5.50;1.60;;;22.60;23.50;;;;;;2265683;61;20408;-70
2022/02/24 01:25:04;0.00;0.00;0.62;0.00;0.00;0.62;2.23;1.47;;;22.50;23.40;;;;;;2265899;61;20357;-68
2022/02/24 01:27:30;0.00;0.00;0.62;0.00;0.00;0.62;5.40;1.80;;;22.50;23.30;;;;;;2265513;61;20363;-68
2022/02/24 01:29:58;0.00;0.00;0.62;0.00;0.00;0.62;3.50;1.60;;;22.40;23.20;;;;;;2265831;61;20361;-69
2022/02/24 01:32:24;0.00;0.00;0.62;0.00;0.00;0.62;3.20;1.73;;;22.40;23.20;;;;;;2265664;61;20564;-68
2022/02/24 01:34:57;0.00;0.00;0.62;0.00;0.00;0.62;4.17;1.70;;;22.30;23.10;;;;;;2265390;61;20369;-69
2022/02/24 01:37:23;0.00;0.00;0.62;0.00;0.00;0.62;4.00;2.17;;;22.30;23.10;;;;;;2265935;61;20377;-70
2022/02/24 01:39:49;0.00;0.00;0.62;0.00;0.00;0.62;2.57;1.53;;;22.20;23.00;;;;;;2265763;61;20350;-68
2022/02/24 01:42:17;0.00;0.00;0.62;0.00;0.00;0.62;3.10;1.63;;;22.20;23.10;;;;;;2265400;61;20588;-69
2022/02/24 01:44:46;0.00;0.00;0.62;0.00;0.00;0.62;2.40;1.73;;;22.20;23.10;;;;;;2265826;61;20369;-68
2022/02/24 01:47:13;0.00;0.00;0.62;0.00;0.00;0.62;2.90;1.83;;;22.10;23.00;;;;;;2265675;61;20347;-69
2022/02/24 01:49:39;0.00;0.00;0.62;0.00;0.00;0.62;2.70;1.37;;;22.10;23.10;;;;;;2265587;61;20576;-69
2022/02/24 01:52:07;0.00;0.00;0.62;0.00;0.00;0.62;3.77;1.80;;;22.10;23.10;;;;;;2265828;61;20559;-68
2022/02/24 01:54:34;0.00;0.00;0.62;0.00;0.00;0.62;4.20;1.70;;;22.10;23.20;;;;;;2265627;61;20821;-69
2022/02/24 01:57:01;0.00;0.00;0.62;0.00;0.00;0.62;3.03;1.93;;;22.00;23.10;;;;;;2265369;61;20716;-68
2022/02/24 01:59:30;0.00;0.00;0.62;0.00;0.00;0.62;2.77;1.70;;;22.00;23.10;;;;;;2265864;61;20342;-69
2022/02/24 02:01:56;0.00;0.00;0.62;0.00;0.00;0.62;2.70;1.43;;;22.00;23.10;;;;;;2265511;61;20389;-69
2022/02/24 02:04:23;0.00;0.00;0.62;0.00;0.00;0.62;2.73;1.43;;;22.00;23.10;;;;;;2265417;61;20432;-67
2022/02/24 02:06:49;0.00;0.00;0.62;0.00;0.00;0.62;3.23;1.90;;;22.00;23.20;;;;;;2265693;61;20377;-68
2022/02/24 02:09:17;0.00;0.00;0.62;0.00;0.00;0.62;3.90;1.90;;;22.00;23.20;;;;;;2265609;61;20378;-69
2022/02/24 02:11:43;0.00;0.00;0.62;0.00;0.00;0.62;2.50;1.80;;;21.90;23.10;;;;;;2265133;61;20785;-69
2022/02/24 02:14:10;0.00;0.00;0.62;0.00;0.00;0.62;7.97;2.10;;;21.90;23.10;;;;;;2265288;61;20358;-69
2022/02/24 02:16:42;0.00;0.00;0.62;0.00;0.00;0.62;3.30;2.10;;;21.80;23.00;;;;;;2265651;61;20342;-70
2022/02/24 02:19:08;0.00;0.00;0.62;0.00;0.00;0.62;2.97;1.87;;;21.80;23.00;;;;;;2265404;61;20365;-69
2022/02/24 02:21:36;0.00;0.00;0.62;0.00;0.00;0.62;4.33;1.83;;;21.80;23.00;;;;;;2265665;61;20350;-70
2022/02/24 02:24:03;0.00;0.00;0.62;0.00;0.00;0.62;4.20;1.87;;;21.80;23.00;;;;;;2265413;61;20386;-69
2022/02/24 02:26:31;0.00;0.00;0.62;0.00;0.00;0.62;2.30;1.13;;;21.70;22.90;;;;;;2265292;61;20346;-69
2022/02/24 02:28:57;0.00;0.00;0.62;0.00;0.00;0.62;3.50;1.57;;;21.70;22.90;;;;;;2265629;61;20558;-69
2022/02/24 02:31:24;0.00;0.00;0.62;0.00;0.00;0.62;4.90;2.17;;;21.70;23.00;;;;;;2265394;61;20584;-69
2022/02/24 02:33:50;0.00;0.00;0.62;0.00;0.00;0.62;3.63;1.70;;;21.60;22.90;;;;;;2265220;61;20630;-69
2022/02/24 02:36:16;0.00;0.00;0.62;0.00;0.00;0.62;3.60;1.90;;;21.60;23.00;;;;;;2265609;61;20410;-69
2022/02/24 02:38:43;0.00;0.00;0.62;0.00;0.00;0.62;3.20;1.90;;;21.60;23.00;;;;;;2265571;61;20429;-69
2022/02/24 02:41:09;0.00;0.00;0.62;0.00;0.00;0.62;3.57;1.27;;;21.60;23.00;;;;;;2265288;61;20710;-68
2022/02/24 02:43:35;0.00;0.00;0.62;0.00;0.00;0.62;3.27;1.60;;;21.60;23.00;;;;;;2264862;61;20380;-69
2022/02/24 02:46:01;0.00;0.00;0.62;0.00;0.00;0.62;3.83;1.93;;;21.60;23.00;;;;;;2265616;61;20357;-70
2022/02/24 02:48:27;0.00;0.00;0.62;0.00;0.00;0.62;5.40;1.90;;;21.60;23.00;;;;;;2265143;61;20427;-69
2022/02/24 02:50:53;0.00;0.00;0.62;0.00;0.00;0.62;3.00;1.67;;;21.60;23.00;;;;;;2265521;61;20396;-69
2022/02/24 02:53:19;0.00;0.00;0.62;0.00;0.00;0.62;2.80;1.30;;;21.50;22.90;;;;;;2265430;61;20441;-68
2022/02/24 02:55:47;0.00;0.00;0.62;0.00;0.00;0.62;3.40;1.30;;;21.50;23.00;;;;;;2265249;61;20346;-68
2022/02/24 02:58:13;0.00;0.00;0.62;0.00;0.00;0.62;2.90;1.83;;;21.50;23.00;;;;;;2265499;61;20676;-68
2022/02/24 03:00:39;0.00;0.00;0.62;0.00;0.00;0.62;4.40;2.00;;;21.50;23.00;;;;;;2265831;61;20425;-68
2022/02/24 03:03:05;0.00;0.00;0.62;0.00;0.00;0.62;2.10;1.27;;;21.50;23.00;;;;;;2264916;61;20455;-68
2022/02/24 03:05:31;0.00;0.00;0.62;0.00;0.00;0.62;2.93;1.70;;;21.40;23.00;;;;;;2265042;61;20357;-68
2022/02/24 03:07:57;0.00;0.00;0.62;0.00;0.00;0.62;2.87;1.90;;;21.40;22.90;;;;;;2265622;61;20349;-69
2022/02/24 03:10:24;0.00;0.00;0.62;0.00;0.00;0.62;3.70;1.57;;;21.40;23.00;;;;;;2264806;61;20350;-69
2022/02/24 03:12:51;0.00;0.00;0.62;0.00;0.00;0.62;3.17;2.23;;;21.40;23.00;;;;;;2265375;61;20689;-69
2022/02/24 03:15:18;0.00;0.00;0.62;0.00;0.00;0.62;2.70;1.40;;;21.40;23.00;;;;;;2265818;61;20346;-69
2022/02/24 03:17:47;0.00;0.00;0.62;0.00;0.00;0.62;3.13;1.73;;;21.40;23.00;;;;;;2264920;61;20342;-68
2022/02/24 03:20:14;0.00;0.00;0.62;0.00;0.00;0.62;2.00;1.40;;;21.30;22.90;;;;;;2265407;61;20349;-68
2022/02/24 03:22:41;0.00;0.00;0.62;0.00;0.00;0.62;2.20;1.40;;;21.30;22.90;;;;;;2265634;61;20445;-69
2022/02/24 03:25:07;0.00;0.00;0.62;0.00;0.00;0.62;3.10;1.47;;;21.30;22.90;;;;;;2264918;61;20426;-67
2022/02/24 03:27:34;0.00;0.00;0.62;0.00;0.00;0.62;2.33;1.53;;;21.30;22.90;;;;;;2265412;61;20350;-69
2022/02/24 03:30:03;0.00;0.00;0.62;0.00;0.00;0.62;3.43;1.70;;;21.30;23.00;;;;;;2265952;61;20377;-68
2022/02/24 03:32:30;0.00;0.00;0.62;0.00;0.00;0.62;2.97;1.43;;;21.30;23.00;;;;;;2264182;61;20447;-68
2022/02/24 03:34:56;0.00;0.00;0.62;0.00;0.00;0.62;2.07;1.30;;;21.30;23.00;;;;;;2264847;61;20620;-69
2022/02/24 03:37:22;0.00;0.00;0.62;0.00;0.00;0.62;2.83;1.63;;;21.20;23.00;;;;;;2265841;61;20349;-69
2022/02/24 03:39:48;0.00;0.00;0.62;0.00;0.00;0.62;2.80;1.73;;;21.20;23.00;;;;;;2264951;61;20775;-69
2022/02/24 03:42:15;0.00;0.00;0.62;0.00;0.00;0.62;2.73;1.50;;;21.20;23.00;;;;;;2264807;61;20342;-69
2022/02/24 03:44:41;0.00;0.00;0.62;0.00;0.00;0.62;5.07;1.80;;;21.20;23.00;;;;;;2265738;61;20512;-68
2022/02/24 03:47:08;0.00;0.00;0.62;0.00;0.00;0.62;2.30;1.40;;;21.20;23.00;;;;;;2264459;61;20595;-69
2022/02/24 03:49:35;0.00;0.00;0.62;0.00;0.00;0.62;2.97;1.60;;;21.20;23.00;;;;;;2265177;61;20698;-68
2022/02/24 03:52:01;0.00;0.00;0.62;0.00;0.00;0.62;1.90;1.50;;;21.20;23.00;;;;;;2265559;61;20350;-68
2022/02/24 03:54:27;0.00;0.00;0.62;0.00;0.00;0.62;3.70;1.50;;;21.20;23.10;;;;;;2265012;61;20388;-67
2022/02/24 03:56:53;0.00;0.00;0.62;0.00;0.00;0.62;2.07;1.37;;;21.20;23.10;;;;;;2265138;61;20777;-69
2022/02/24 03:59:19;0.00;0.00;0.62;0.00;0.00;0.62;3.23;1.93;;;21.10;23.00;;;;;;2266174;61;20387;-68
2022/02/24 04:01:45;0.00;0.00;0.62;0.00;0.00;0.62;2.63;1.57;;;21.20;23.10;;;;;;2265641;61;20365;-69
2022/02/24 04:04:14;0.00;0.00;0.62;0.00;0.00;0.62;2.90;1.87;;;21.20;23.10;;;;;;2265937;61;20500;-69
2022/02/24 04:06:40;0.00;0.00;0.62;0.00;0.00;0.62;2.47;1.50;;;21.20;23.20;;;;;;2266363;61;20396;-68
2022/02/24 04:09:06;0.00;0.00;0.62;0.00;0.00;0.62;2.93;1.50;;;21.20;23.20;;;;;;2265676;61;20356;-68
2022/02/24 04:11:32;0.00;0.00;0.62;0.00;0.00;0.62;2.73;1.67;;;21.20;23.20;;;;;;2265706;61;20412;-69
2022/02/24 04:13:59;0.00;0.00;0.62;0.00;0.00;0.62;2.60;1.40;;;21.20;23.20;;;;;;2266420;61;20373;-69
2022/02/24 04:16:25;0.00;0.00;0.62;0.00;0.00;0.62;3.93;1.70;;;21.20;23.30;;;;;;2261932;61;20346;-69
2022/02/24 04:18:51;0.00;0.00;0.62;0.00;0.00;0.62;2.93;1.53;;;21.20;23.20;;;;;;2265796;61;20350;-68
2022/02/24 04:21:18;0.00;0.00;0.62;0.00;0.00;0.62;2.20;1.40;;;21.20;23.20;;;;;;2266196;61;20350;-69
2022/02/24 04:23:44;0.00;0.00;0.62;0.00;0.00;0.62;2.53;1.40;;;21.20;23.20;;;;;;2265562;61;20647;-69
2022/02/24 04:26:10;0.00;0.00;0.62;0.00;0.00;0.62;3.33;1.50;;;21.10;23.10;;;;;;2265836;61;20349;-68
2022/02/24 04:28:36;0.00;0.00;0.62;0.00;0.00;0.62;3.83;2.13;;;21.10;23.10;;;;;;2266203;61;20346;-69
2022/02/24 04:31:02;0.00;0.00;0.62;0.00;0.00;0.62;2.10;1.50;;;21.10;23.10;;;;;;2265522;61;20342;-69
2022/02/24 04:33:28;0.00;0.00;0.62;0.00;0.00;0.62;2.93;1.67;;;21.10;23.10;;;;;;2265580;61;20393;-68
2022/02/24 04:35:54;0.00;0.00;0.62;0.00;0.00;0.62;2.03;1.37;;;21.10;23.10;;;;;;2266374;61;20342;-69
2022/02/24 04:38:22;0.00;0.00;0.62;0.00;0.00;0.62;3.97;1.60;;;21.10;23.10;;;;;;2265163;61;20343;-69
2022/02/24 04:40:48;0.00;0.00;0.62;0.00;0.00;0.62;3.13;1.70;;;21.10;23.20;;;;;;2265812;61;20354;-69
2022/02/24 04:43:14;0.00;0.00;0.62;0.00;0.00;0.62;1.93;1.20;;;21.00;23.10;;;;;;2266160;61;20593;-68
2022/02/24 04:45:40;0.00;0.00;0.62;0.00;0.00;0.62;2.03;1.27;;;21.00;23.10;;;;;;2265526;61;20423;-69
2022/02/24 04:48:07;0.00;0.00;0.62;0.00;0.00;0.62;3.07;1.40;;;21.10;23.20;;;;;;2265662;61;20386;-69
2022/02/24 04:50:34;0.00;0.00;0.62;0.00;0.00;0.62;2.47;1.70;;;21.00;23.20;;;;;;2266255;61;20374;-69
2022/02/24 04:53:01;0.00;0.00;0.62;0.00;0.00;0.62;2.17;1.40;;;21.10;23.30;;;;;;2265503;61;20671;-69
2022/02/24 04:55:28;0.00;0.00;0.62;0.00;0.00;0.62;1.90;1.37;;;21.00;23.20;;;;;;2265629;61;20706;-69
2022/02/24 04:57:54;0.00;0.00;0.62;0.00;0.00;0.62;2.37;1.20;;;21.00;23.30;;;;;;2266250;61;20357;-69
2022/02/24 05:00:21;0.00;0.00;0.62;0.00;0.00;0.62;2.63;1.40;;;21.10;23.40;;;;;;2265508;61;20350;-69
2022/02/24 05:02:47;0.00;0.00;0.62;0.00;0.00;0.62;2.83;1.80;;;21.10;23.90;;;;;;2265450;61;20733;-69
2022/02/24 05:05:13;0.00;0.00;0.62;0.00;0.00;0.62;2.90;1.70;;;21.10;23.40;;;;;;2266358;61;20388;-68
2022/02/24 05:07:39;0.00;0.00;0.62;0.00;0.00;0.62;2.60;1.60;;;21.10;23.50;;;;;;2265583;61;20353;-66
2022/02/24 05:10:07;0.00;0.00;0.62;0.00;0.00;0.62;3.07;1.43;;;21.10;23.40;;;;;;2265507;61;20396;-65
2022/02/24 05:12:35;0.00;0.00;0.62;0.00;0.00;0.62;3.40;2.13;;;21.10;23.40;;;;;;2266192;61;20449;-66
2022/02/24 05:15:01;0.00;0.00;0.62;0.00;0.00;0.62;4.33;1.93;;;21.10;23.30;;;;;;2265652;61;20350;-65
2022/02/24 05:17:27;0.00;0.00;0.62;0.00;0.00;0.62;3.43;1.87;;;21.00;23.10;;;;;;2265714;61;20427;-68
2022/02/24 05:19:53;0.00;0.00;0.62;0.00;0.00;0.62;2.63;1.80;;;21.00;23.10;;;;;;2266254;61;20346;-68
2022/02/24 05:22:19;0.00;0.00;0.62;0.00;0.00;0.62;4.40;1.70;;;21.00;23.10;;;;;;2265394;61;20354;-67
2022/02/24 05:24:45;0.00;0.00;0.62;0.00;0.00;0.62;3.00;1.63;;;21.00;23.20;;;;;;2264962;61;20427;-67
2022/02/24 05:27:11;0.00;0.00;0.62;0.00;0.00;0.62;4.33;1.93;;;21.00;23.20;;;;;;2266154;61;20378;-68
2022/02/24 05:29:38;0.00;0.00;0.62;0.00;0.00;0.62;3.80;1.70;;;21.00;23.20;;;;;;2265277;61;20864;-67
2022/02/24 05:32:06;0.00;0.00;0.62;0.00;0.00;0.62;2.40;1.87;;;21.00;23.20;;;;;;2265197;61;20353;-67
2022/02/24 05:34:32;0.00;0.00;0.62;0.00;0.00;0.62;3.40;1.90;;;21.00;23.20;;;;;;2266046;61;20366;-68
2022/02/24 05:36:58;0.00;0.00;0.62;0.00;0.00;0.62;3.13;2.00;;;21.00;23.20;;;;;;2265915;61;20353;-66
2022/02/24 05:39:24;0.00;0.00;0.62;0.00;0.00;0.62;4.00;1.80;;;21.00;23.20;;;;;;2265417;61;20342;-67
2022/02/24 05:41:50;0.00;0.00;0.62;0.00;0.00;0.62;4.00;2.07;;;21.00;23.20;;;;;;2265931;61;20346;-66
2022/02/24 05:44:16;0.00;0.00;0.62;0.00;0.00;0.62;2.50;1.50;;;21.00;23.20;;;;;;2265320;61;20461;-64
2022/02/24 05:46:44;0.00;0.00;0.62;0.00;0.00;0.62;3.07;1.73;;;21.00;23.10;;;;;;2265399;61;20350;-64
2022/02/24 05:49:12;0.00;0.00;0.62;0.00;0.00;0.62;3.47;2.10;;;20.90;22.90;;;;;;2265883;61;20351;-66
2022/02/24 05:51:38;0.00;0.00;0.62;0.00;0.00;0.62;3.57;1.80;;;20.90;22.80;;;;;;2265577;61;20458;-66
2022/02/24 05:54:04;0.00;0.00;0.62;0.00;0.00;0.62;3.70;1.87;;;20.90;22.80;;;;;;2265237;61;20362;-66
2022/02/24 05:56:30;0.00;0.00;0.62;0.00;0.00;0.62;4.90;2.53;;;20.80;22.60;;;;;;2265261;61;20358;-66
2022/02/24 05:58:56;0.00;0.00;0.62;0.00;0.00;0.62;4.17;2.60;;;20.80;22.60;;;;;;2265789;61;20474;-65
2022/02/24 06:01:22;0.00;0.00;0.62;0.00;0.00;0.62;4.80;2.00;;;20.80;22.70;;;;;;2265470;61;20358;-66
2022/02/24 06:03:49;0.00;0.00;0.62;0.00;0.00;0.62;2.53;1.73;;;20.80;22.60;;;;;;2265224;61;20382;-67
2022/02/24 06:06:15;0.00;0.00;0.62;0.00;0.00;0.62;3.60;2.23;;;20.70;22.60;;;;;;2265265;61;20591;-65
2022/02/24 06:08:41;0.00;0.00;0.62;0.00;0.00;0.62;4.13;2.43;;;20.70;22.60;;;;;;2265355;61;20346;-66
2022/02/24 06:11:08;0.00;0.00;0.62;0.00;0.00;0.62;3.40;1.70;;;20.60;22.50;;;;;;2265587;61;20391;-66
2022/02/24 06:13:34;0.00;0.00;0.62;0.00;0.00;0.62;3.07;1.50;;;20.60;22.60;;;;;;2265555;61;20411;-68
2022/02/24 06:16:01;0.00;0.00;0.62;0.00;0.00;0.62;3.40;1.80;;;20.60;22.70;;;;;;2265431;61;20346;-66
2022/02/24 06:18:27;0.00;0.00;0.62;0.00;0.00;0.62;3.63;1.73;;;20.60;22.80;;;;;;2265694;61;20430;-68
2022/02/24 06:20:54;0.00;0.00;0.62;0.00;0.00;0.62;4.83;1.73;;;20.60;22.90;;;;;;2265587;61;20568;-66
2022/02/24 06:23:21;0.00;0.00;0.62;0.00;0.00;0.62;3.43;1.30;;;20.60;22.90;;;;;;2265181;61;20382;-66
2022/02/24 06:25:47;0.00;0.00;0.62;0.00;0.00;0.62;2.30;1.40;;;20.60;23.00;;;;;;2265618;61;20377;-66
2022/02/24 06:28:13;0.00;0.00;0.62;0.00;0.00;0.62;2.63;1.53;;;20.70;23.10;;;;;;2265527;61;20592;-68
2022/02/24 06:30:39;0.00;0.00;0.62;0.00;0.00;0.62;4.33;1.30;;;20.70;23.20;;;;;;2265197;61;20429;-67
2022/02/24 06:33:05;0.00;0.00;0.62;0.00;0.00;0.62;2.27;1.23;;;20.70;23.20;;;;;;2265560;61;20568;-67
2022/02/24 06:35:31;0.00;0.00;0.62;0.00;0.00;0.62;2.80;1.43;;;20.70;23.20;;;;;;2265588;61;20358;-67
2022/02/24 06:38:01;0.00;0.00;0.62;0.00;0.00;0.62;1.70;1.13;;;20.80;23.30;;;;;;2265396;61;20345;-67
2022/02/24 06:40:27;0.00;0.00;0.62;0.00;0.00;0.62;1.80;1.00;;;20.80;23.30;;;;;;2265547;61;20350;-68
2022/02/24 06:42:53;0.00;0.00;0.62;0.00;0.00;0.62;3.27;1.50;;;20.80;23.30;;;;;;2265398;61;20370;-67
2022/02/24 06:45:19;0.00;0.00;0.62;0.00;0.00;0.62;2.90;1.67;;;20.80;23.30;;;;;;2265344;61;20368;-67
2022/02/24 06:47:46;0.00;0.00;0.62;0.00;0.00;0.62;1.87;1.13;;;20.80;23.40;;;;;;2265417;61;20378;-67
2022/02/24 06:50:12;0.00;0.00;0.62;0.00;0.00;0.62;2.20;1.30;;;20.80;23.30;;;;;;2265564;61;20342;-67
2022/02/24 06:52:38;0.00;0.00;0.62;0.00;0.00;0.62;2.20;1.43;;;20.90;23.40;;;;;;2265175;61;20372;-66
2022/02/24 06:55:08;0.00;0.00;0.62;0.00;0.00;0.62;1.50;1.07;;;20.90;23.50;;;;;;2264881;61;20361;-67
2022/02/24 06:57:38;0.00;0.00;0.62;0.00;0.00;0.62;1.93;1.33;;;20.90;23.50;;;;;;2265704;61;20687;-66
2022/02/24 07:00:07;0.00;0.00;0.62;0.00;0.00;0.62;1.70;1.00;;;20.90;23.50;;;;;;2265295;61;20349;-67
2022/02/24 07:02:33;0.00;0.00;0.62;0.00;0.00;0.62;2.30;1.20;;;21.00;23.50;;;;;;2265344;61;20376;-66
2022/02/24 07:04:59;0.00;0.00;0.62;0.00;0.00;0.62;2.27;1.70;;;21.00;23.50;;;;;;2265761;61;20586;-67
2022/02/24 07:07:25;0.00;0.00;0.62;0.00;0.00;0.62;1.83;1.10;;;21.00;23.60;;;;;;2264585;61;20377;-67
2022/02/24 07:09:51;0.00;0.00;0.62;0.00;0.00;0.62;3.57;1.73;;;21.00;23.60;;;;;;2265513;61;20417;-67
2022/02/24 07:12:19;0.00;0.00;0.62;0.00;0.00;0.62;1.90;1.03;;;21.00;23.60;;;;;;2265111;61;20421;-67
2022/02/24 07:14:45;0.00;0.00;0.62;0.00;0.00;0.62;1.80;1.30;;;21.00;23.60;;;;;;2264987;61;20377;-67
2022/02/24 07:17:11;0.00;0.00;0.62;0.00;0.00;0.62;1.80;1.23;;;21.00;23.60;;;;;;2265471;61;20504;-67
2022/02/24 07:19:37;0.00;0.00;0.62;0.00;0.00;0.62;2.13;1.20;;;21.10;23.70;;;;;;2265916;61;20346;-67
2022/02/24 07:22:03;0.00;0.00;0.62;0.00;0.00;0.62;1.53;0.93;;;21.00;23.60;;;;;;2264892;61;20346;-67
2022/02/24 07:24:29;0.00;0.00;0.62;0.00;0.00;0.62;2.20;1.27;;;21.10;23.70;;;;;;2265527;61;20369;-67
2022/02/24 07:26:55;0.00;0.00;0.62;0.00;0.00;0.62;1.80;1.17;;;21.10;23.70;;;;;;2265879;61;20346;-67
2022/02/24 07:29:23;0.00;0.00;0.62;0.00;0.00;0.62;1.60;0.90;;;21.10;23.70;;;;;;2264775;61;20568;-67
2022/02/24 07:31:49;0.00;0.00;0.62;0.00;0.00;0.62;1.67;1.10;;;21.10;23.70;;;;;;2265313;61;20681;-67
2022/02/24 07:34:15;0.00;0.00;0.62;0.00;0.00;0.62;1.60;1.00;;;21.10;23.70;;;;;;2265716;61;20393;-67
2022/02/24 07:36:43;0.00;0.00;0.62;0.00;0.00;0.62;2.10;1.10;;;21.10;24.20;;;;;;2264628;61;20346;-67
2022/02/24 07:39:10;0.00;0.00;0.62;0.00;0.00;0.62;1.40;1.00;;;21.20;23.80;;;;;;2265558;61;20473;-67
2022/02/24 07:41:38;0.00;0.00;0.62;0.00;0.00;0.62;1.70;1.00;;;21.20;23.70;;;;;;2265761;61;20353;-67
2022/02/24 07:44:05;0.00;0.00;0.62;0.00;0.00;0.62;1.40;0.90;;;21.20;23.70;;;;;;2264787;61;20382;-67
2022/02/24 07:46:33;0.00;0.00;0.62;0.00;0.00;0.62;1.50;1.00;;;21.20;23.80;;;;;;2265482;61;20354;-66
2022/02/24 07:48:59;0.00;0.00;0.62;0.00;0.00;0.62;1.40;0.97;;;21.20;23.80;;;;;;2265649;61;20354;-67
2022/02/24 07:51:26;0.00;0.00;0.62;0.00;0.00;0.62;1.40;0.80;;;21.20;23.80;;;;;;2264644;61;20369;-68
2022/02/24 07:53:52;0.00;0.00;0.62;0.00;0.00;0.62;2.00;1.00;;;21.20;23.80;;;;;;2265403;61;20354;-67
2022/02/24 07:56:18;0.00;0.00;0.62;0.00;0.00;0.62;2.60;1.07;;;21.30;23.80;;;;;;2265753;61;20357;-67
2022/02/24 07:58:44;0.00;0.00;0.62;0.00;0.00;0.62;2.00;1.23;;;21.30;23.80;;;;;;2264980;61;20382;-68
2022/02/24 08:01:10;0.00;0.00;0.62;0.00;0.00;0.62;2.73;1.00;;;21.30;23.80;;;;;;2265224;61;20361;-67
2022/02/24 08:03:38;0.00;0.00;0.62;0.00;0.00;0.62;1.53;0.93;;;21.30;23.80;;;;;;2265541;61;20418;-67
2022/02/24 08:06:04;0.00;0.00;0.62;0.00;0.00;0.62;1.50;0.90;;;21.30;23.80;;;;;;2265155;61;20640;-67
2022/02/24 08:08:30;0.00;0.00;0.62;0.00;0.00;0.62;1.70;0.90;;;21.30;23.80;;;;;;2265058;61;20577;-67
2022/02/24 08:10:56;0.00;0.00;0.62;0.00;0.00;0.62;1.40;0.90;;;21.30;23.90;;;;;;2265054;61;20431;-66
2022/02/24 08:13:22;0.00;0.00;0.62;0.00;0.00;0.62;1.93;1.13;;;21.30;23.80;;;;;;2265114;61;20365;-67
2022/02/24 08:15:48;0.00;0.00;0.62;0.00;0.00;0.62;1.73;1.00;;;21.30;23.80;;;;;;2265116;61;20350;-67
2022/02/24 08:18:15;0.00;0.00;0.62;0.00;0.00;0.62;1.80;1.40;;;21.30;23.80;;;;;;2265507;61;20544;-67
2022/02/24 08:20:43;0.00;0.00;0.62;0.00;0.00;0.62;1.40;0.90;;;21.30;23.90;;;;;;2265085;61;20658;-67
2022/02/24 08:23:10;0.00;0.00;0.62;0.00;0.00;0.62;1.53;0.83;;;21.30;23.80;;;;;;2264417;61;20385;-67
2022/02/24 08:25:38;0.00;0.00;0.62;0.00;0.00;0.62;1.80;1.00;;;21.40;23.90;;;;;;2265600;61;20398;-67
2022/02/24 08:28:04;0.00;0.00;0.62;0.00;0.00;0.62;1.80;1.00;;;21.40;23.90;;;;;;2264975;61;20363;-67
2022/02/24 08:30:30;0.00;0.00;0.62;0.00;0.00;0.62;1.60;1.00;;;21.40;23.90;;;;;;2264994;61;20358;-67
2022/02/24 08:32:56;0.00;0.00;0.62;0.00;0.00;0.62;2.07;1.00;;;21.40;23.90;;;;;;2265315;61;20362;-67
2022/02/24 08:35:24;0.00;0.00;0.62;0.00;0.00;0.62;1.90;1.07;;;21.40;23.90;;;;;;2264950;61;20584;-66
2022/02/24 08:37:51;0.00;0.00;0.62;0.00;0.00;0.62;2.27;1.30;;;21.40;23.90;;;;;;2265134;61;20350;-66
2022/02/24 08:40:21;0.00;0.00;0.62;0.00;0.00;0.62;1.70;1.00;;;21.40;23.90;;;;;;2265160;61;20578;-67
2022/02/24 08:42:50;0.00;0.00;0.62;0.00;0.00;0.62;1.40;0.90;;;21.40;23.90;;;;;;2264829;61;20438;-67
2022/02/24 08:45:17;0.00;0.00;0.62;0.00;0.00;0.62;1.50;0.90;;;21.40;23.90;;;;;;2265104;61;20593;-66
2022/02/24 08:47:43;0.00;0.00;0.62;0.00;0.00;0.62;1.60;0.87;;;21.50;24.00;;;;;;2265523;61;20757;-66
2022/02/24 08:50:11;0.00;0.00;0.62;0.00;0.00;0.62;1.40;0.90;;;21.50;24.00;;;;;;2265723;61;20419;-66
2022/02/24 08:52:37;0.00;0.00;0.62;0.00;0.00;0.62;1.60;0.90;;;21.50;24.00;;;;;;2265497;61;20392;-66
2022/02/24 08:55:05;0.00;0.00;0.62;0.00;0.00;0.62;1.43;0.73;;;21.50;24.00;;;;;;2266047;61;20353;-65
2022/02/24 08:57:31;0.00;0.00;0.62;0.00;0.00;0.62;1.60;0.90;;;21.50;24.00;;;;;;2265584;61;20757;-66
2022/02/24 08:59:57;0.00;0.00;0.62;0.00;0.00;0.62;1.80;0.90;;;21.50;24.00;;;;;;2265597;61;20400;-66
2022/02/24 09:02:24;0.00;0.00;0.62;0.00;0.00;0.62;1.40;0.90;;;21.50;24.00;;;;;;2265566;61;20342;-67
2022/02/24 09:04:50;0.00;0.00;0.62;0.00;0.00;0.62;1.47;0.80;;;21.50;24.00;;;;;;2265649;61;20385;-66
2022/02/24 09:07:16;0.00;0.00;0.62;0.00;0.00;0.62;1.47;0.83;;;21.50;23.90;;;;;;2265552;61;20476;-66
2022/02/24 09:09:42;0.00;0.00;0.62;0.00;0.00;0.62;1.50;0.90;;;21.60;24.00;;;;;;2265648;61;20622;-66
2022/02/24 09:12:10;0.00;0.00;0.62;0.00;0.00;0.62;2.00;1.33;;;21.60;24.00;;;;;;2265487;61;20357;-66
2022/02/24 09:14:36;0.00;0.00;0.62;0.00;0.00;0.62;2.13;1.00;;;21.60;24.00;;;;;;2265393;61;20449;-66
2022/02/24 09:17:03;0.00;0.00;0.62;0.00;0.00;0.62;1.50;0.90;;;21.60;24.00;;;;;;2266171;61;20426;-66
2022/02/24 09:19:31;0.00;0.00;0.62;0.00;0.00;0.62;1.60;0.90;;;21.60;24.00;;;;;;2265549;61;20353;-67
2022/02/24 09:21:57;0.00;0.00;0.62;0.00;0.00;0.62;1.40;0.97;;;21.60;24.00;;;;;;2265361;61;20714;-68
2022/02/24 09:24:23;0.00;0.00;0.62;0.00;0.00;0.62;1.93;1.17;;;21.60;24.00;;;;;;2266108;61;20385;-68
2022/02/24 09:26:49;0.00;0.00;0.62;0.00;0.00;0.62;1.30;0.80;;;21.60;24.00;;;;;;2265449;61;20377;-67
2022/02/24 09:29:17;0.00;0.00;0.62;0.00;0.00;0.62;1.60;0.90;;;21.60;24.00;;;;;;2265444;61;20339;-67
2022/02/24 09:31:44;0.00;0.00;0.62;0.00;0.00;0.62;1.30;0.90;;;21.60;24.00;;;;;;2266025;61;20358;-66
2022/02/24 09:34:10;0.00;0.00;0.62;0.00;0.00;0.62;1.23;0.73;;;21.60;24.00;;;;;;2265469;61;20362;-67
2022/02/24 09:36:36;0.00;0.00;0.62;0.00;0.00;0.62;1.80;1.03;;;21.60;24.00;;;;;;2265506;61;20769;-67
2022/02/24 09:39:02;0.00;0.00;0.62;0.00;0.00;0.62;1.30;0.77;;;21.70;24.10;;;;;;2265710;61;20357;-67